createdAt,value
2023-03-08T00:03:57.364Z,61.91
2023-03-08T00:07:58.806Z,62.95
2023-03-08T00:12:00.216Z,60.87
2023-03-08T00:16:03.766Z,61.14
2023-03-08T00:20:07.336Z,60.67
2023-03-08T00:24:08.757Z,61.89
2023-03-08T00:28:10.177Z,64.64
2023-03-08T00:32:11.634Z,66.50
2023-03-08T00:36:18.172Z,70.05
2023-03-08T00:40:19.624Z,72.57
2023-03-08T00:44:21.052Z,72.83
2023-03-08T00:48:23.076Z,73.97
2023-03-08T00:52:26.958Z,78.10
2023-03-08T00:56:28.440Z,79.79
2023-03-08T01:00:31.665Z,78.05
2023-03-08T01:04:33.947Z,78.50
2023-03-08T01:08:36.254Z,80.80
2023-03-08T01:12:38.271Z,80.42
2023-03-08T01:16:40.967Z,78.98
2023-03-08T01:20:42.600Z,80.94
2023-03-08T01:24:45.796Z,78.92
2023-03-08T01:28:47.881Z,83.14
2023-03-08T01:32:49.457Z,84.66
2023-03-08T01:36:50.890Z,83.44
2023-03-08T01:40:57.544Z,84.26
2023-03-08T01:45:03.294Z,83.31
2023-03-08T01:49:27.070Z,84.58
2023-03-08T01:53:30.146Z,88.70
2023-03-08T01:57:34.926Z,83.72
2023-03-08T02:01:36.563Z,85.58
2023-03-08T02:05:41.951Z,84.89
2023-03-08T02:09:50.305Z,85.16
2023-03-08T02:13:54.388Z,86.00
2023-03-08T02:17:57.377Z,84.68
2023-03-08T02:21:58.883Z,86.51
2023-03-08T02:26:04.969Z,92.51
2023-03-08T02:30:07.032Z,91.85
2023-03-08T02:34:08.493Z,89.52
2023-03-08T02:38:12.527Z,90.12
2023-03-08T02:42:13.991Z,88.79
2023-03-08T02:46:17.796Z,91.65
2023-03-08T02:50:20.335Z,90.82
2023-03-08T02:54:21.937Z,92.50
2023-03-08T02:58:23.493Z,92.16
2023-03-08T03:02:25.170Z,90.15
2023-03-08T03:06:26.691Z,90.59
2023-03-08T03:10:30.990Z,88.44
2023-03-08T03:14:32.753Z,86.12
2023-03-08T03:18:35.828Z,84.15
2023-03-08T03:22:37.374Z,86.33
2023-03-08T03:26:41.505Z,86.50
2023-03-08T03:30:43.030Z,89.94
2023-03-08T03:34:47.127Z,88.28
2023-03-08T03:38:51.423Z,91.80
2023-03-08T03:42:53.764Z,91.41
2023-03-08T03:46:55.372Z,93.86
2023-03-08T03:51:09.969Z,91.68
2023-03-08T03:55:13.120Z,90.85
2023-03-08T03:59:15.171Z,90.43
2023-03-08T04:03:17.181Z,92.74
2023-03-08T04:07:19.342Z,91.09
2023-03-08T04:11:34.087Z,91.35
2023-03-08T04:15:36.380Z,94.06
2023-03-08T04:19:41.631Z,92.01
2023-03-08T04:23:45.414Z,91.34
2023-03-08T04:27:47.154Z,90.35
2023-03-08T04:31:49.223Z,90.44
2023-03-08T04:35:53.805Z,91.45
2023-03-08T04:39:58.569Z,92.81
2023-03-08T04:44:00.191Z,93.66
2023-03-08T04:48:14.906Z,91.79
2023-03-08T04:52:16.546Z,90.60
2023-03-08T04:56:19.120Z,90.99
2023-03-08T05:00:22.269Z,89.60
2023-03-08T05:04:23.823Z,94.15
2023-03-08T05:08:27.310Z,97.61
2023-03-08T05:12:28.984Z,97.70
2023-03-08T05:16:33.701Z,100.00
2023-03-08T05:20:38.426Z,99.87
2023-03-08T05:24:41.285Z,100.00
2023-03-08T05:28:45.780Z,100.00
2023-03-08T05:32:47.354Z,100.00
2023-03-08T05:36:49.318Z,100.00
2023-03-08T05:40:51.439Z,100.00
2023-03-08T05:44:53.250Z,100.00
2023-03-08T05:49:00.713Z,100.00
2023-03-08T05:53:05.185Z,100.00
2023-03-08T05:57:06.630Z,99.97
2023-03-08T06:01:20.490Z,100.00
2023-03-08T06:05:22.164Z,100.00
2023-03-08T06:09:28.023Z,100.00
2023-03-08T06:13:29.628Z,100.00
2023-03-08T06:17:31.511Z,100.00
2023-03-08T06:21:34.048Z,100.00
2023-03-08T06:25:37.984Z,100.00
2023-03-08T06:29:39.650Z,100.00
2023-03-08T06:33:41.953Z,100.00
2023-03-08T06:37:47.743Z,100.00
2023-03-08T06:41:50.363Z,100.00
2023-03-08T06:45:53.116Z,100.00
2023-03-08T06:49:56.270Z,100.00
2023-03-08T06:53:57.992Z,99.10
2023-03-08T06:58:02.567Z,97.87
2023-03-08T07:02:04.108Z,97.43
2023-03-08T07:06:08.510Z,95.32
2023-03-08T07:10:12.155Z,97.80
2023-03-08T07:14:13.587Z,97.82
2023-03-08T07:18:16.068Z,96.38
2023-03-08T07:22:17.611Z,100.00
2023-03-08T07:26:19.304Z,93.69
2023-03-08T07:30:21.093Z,94.84
2023-03-08T07:34:22.587Z,94.07
2023-03-08T07:38:24.035Z,90.21
2023-03-08T07:42:27.243Z,88.75
2023-03-08T07:46:34.536Z,88.25
2023-03-08T07:50:36.721Z,87.28
2023-03-08T07:54:38.719Z,88.49
2023-03-08T07:58:40.304Z,89.25
2023-03-08T08:02:42.111Z,91.37
2023-03-08T08:06:43.654Z,90.26
2023-03-08T08:10:45.309Z,94.02
2023-03-08T08:14:46.824Z,96.19
2023-03-08T08:18:48.614Z,95.59
2023-03-08T08:22:53.187Z,96.80
2023-03-08T08:26:54.738Z,95.71
2023-03-08T08:31:02.077Z,94.75
2023-03-08T08:35:04.730Z,92.32
2023-03-08T08:39:06.135Z,94.55
2023-03-08T08:43:07.660Z,94.03
2023-03-08T08:47:09.126Z,93.68
2023-03-08T08:51:12.964Z,92.36
2023-03-08T08:55:14.645Z,88.38
2023-03-08T08:59:16.379Z,86.05
2023-03-08T09:03:17.848Z,85.50
2023-03-08T09:07:19.248Z,83.27
2023-03-08T09:11:21.050Z,84.97
2023-03-08T09:15:23.140Z,84.24
2023-03-08T09:19:24.649Z,82.69
2023-03-08T09:23:26.175Z,82.88
2023-03-08T09:27:27.574Z,83.78
2023-03-08T09:31:29.063Z,79.04
2023-03-08T09:35:30.806Z,77.52
2023-03-08T09:39:32.447Z,77.18
2023-03-08T09:43:51.358Z,76.14
2023-03-08T09:48:10.933Z,75.92
2023-03-08T09:52:30.733Z,74.36
2023-03-08T09:56:38.285Z,71.93
2023-03-08T10:00:41.738Z,74.86
2023-03-08T10:04:46.925Z,73.98
2023-03-08T10:08:57.073Z,73.42
2023-03-08T10:13:26.073Z,72.63
2023-03-08T10:17:42.044Z,72.21
2023-03-08T10:21:44.744Z,71.05
2023-03-08T10:25:47.440Z,69.43
2023-03-08T10:29:51.003Z,68.98
2023-03-08T10:34:00.981Z,68.23
2023-03-08T10:38:03.670Z,68.71
2023-03-08T10:42:16.121Z,67.34
2023-03-08T10:46:20.602Z,68.40
2023-03-08T10:50:27.958Z,71.30
2023-03-08T10:54:29.643Z,68.87
2023-03-08T10:58:39.639Z,66.11
2023-03-08T11:02:41.122Z,66.07
2023-03-08T11:06:42.870Z,69.45
2023-03-08T11:10:44.581Z,68.51
2023-03-08T11:14:47.872Z,70.75
2023-03-08T11:19:06.472Z,67.26
2023-03-08T11:23:35.314Z,68.48
2023-03-08T11:28:18.322Z,70.35
2023-03-08T11:32:40.910Z,64.78
2023-03-08T11:36:58.161Z,59.81
2023-03-08T11:41:36.960Z,60.94
2023-03-08T11:45:53.108Z,63.90
2023-03-08T11:50:20.537Z,57.90
2023-03-08T11:54:41.645Z,61.89
2023-03-08T11:58:54.499Z,61.78
2023-03-08T12:03:01.319Z,56.11
2023-03-08T12:07:09.873Z,55.68
2023-03-08T12:11:24.343Z,58.27
2023-03-08T12:15:38.734Z,60.74
2023-03-08T12:19:46.234Z,60.22
2023-03-08T12:24:12.709Z,57.33
2023-03-08T12:28:25.667Z,58.11
2023-03-08T12:32:28.426Z,61.42
2023-03-08T12:36:46.812Z,62.37
2023-03-08T12:40:53.823Z,62.67
2023-03-08T12:45:28.097Z,62.46
2023-03-08T12:49:37.321Z,60.56
2023-03-08T12:53:50.845Z,60.41
2023-03-08T12:57:54.975Z,58.71
2023-03-08T13:01:56.444Z,61.77
2023-03-08T13:05:57.953Z,65.66
2023-03-08T13:10:07.729Z,65.82
2023-03-08T13:14:23.276Z,67.82
2023-03-08T13:18:24.715Z,65.88
2023-03-08T13:22:37.709Z,64.85
2023-03-08T13:26:58.302Z,63.21
2023-03-08T13:31:13.026Z,62.00
2023-03-08T13:35:16.793Z,63.48
2023-03-08T13:39:23.581Z,60.66
2023-03-08T13:43:31.123Z,57.33
2023-03-08T13:47:34.827Z,59.00
2023-03-08T13:51:36.305Z,56.66
2023-03-08T13:55:47.197Z,54.55
2023-03-08T13:59:51.383Z,52.96
2023-03-08T14:03:55.366Z,54.08
2023-03-08T14:08:06.144Z,52.67
2023-03-08T14:12:08.028Z,53.82
2023-03-08T14:16:23.193Z,61.07
2023-03-08T14:20:25.414Z,58.04
2023-03-08T14:24:32.630Z,65.98
2023-03-08T14:28:40.461Z,70.33
2023-03-08T14:32:57.719Z,65.71
2023-03-08T14:37:13.963Z,66.04
2023-03-08T14:41:15.978Z,66.51
2023-03-08T14:45:23.638Z,67.25
2023-03-08T14:49:29.224Z,66.10
2023-03-08T14:53:39.223Z,63.80
2023-03-08T14:57:42.311Z,62.38
2023-03-08T15:01:43.898Z,67.25
2023-03-08T15:05:48.469Z,69.34
2023-03-08T15:09:51.457Z,67.20
2023-03-08T15:13:52.909Z,65.80
2023-03-08T15:17:54.499Z,64.47
2023-03-08T15:21:56.046Z,65.98
2023-03-08T15:25:59.235Z,63.16
2023-03-08T15:30:00.727Z,60.67
2023-03-08T15:34:02.177Z,62.25
2023-03-08T15:38:03.713Z,61.86
2023-03-08T15:42:05.466Z,59.95
2023-03-08T15:46:06.945Z,60.79
2023-03-08T15:50:17.353Z,61.94
2023-03-08T15:54:18.980Z,64.74
2023-03-08T15:58:20.517Z,62.31
2023-03-08T16:02:22.023Z,63.69
2023-03-08T16:06:24.559Z,82.75
2023-03-08T16:10:28.460Z,68.97
2023-03-08T16:14:29.958Z,65.83
2023-03-08T16:18:32.460Z,68.26
2023-03-08T16:22:34.314Z,67.28
2023-03-08T16:26:35.815Z,68.84
2023-03-08T16:30:39.171Z,71.14
2023-03-08T16:34:40.728Z,68.44
2023-03-08T16:38:42.591Z,70.61
2023-03-08T16:42:44.238Z,71.40
2023-03-08T16:46:45.801Z,69.71
2023-03-08T16:50:55.634Z,68.07
2023-03-08T16:54:57.150Z,66.41
2023-03-08T16:58:59.913Z,65.55
2023-03-08T17:03:01.332Z,64.91
2023-03-08T17:07:06.453Z,66.80
2023-03-08T17:11:15.607Z,69.09
2023-03-08T17:15:17.070Z,69.28
2023-03-08T17:19:18.538Z,69.20
2023-03-08T17:23:20.207Z,71.68
2023-03-08T17:27:22.179Z,75.65
2023-03-08T17:31:24.263Z,83.39
2023-03-08T17:35:26.311Z,83.29
2023-03-08T17:39:27.765Z,82.04
2023-03-08T17:43:29.174Z,80.45
2023-03-08T17:47:30.573Z,81.96
2023-03-08T17:51:32.658Z,88.26
2023-03-08T17:55:34.063Z,92.81
2023-03-08T17:59:35.520Z,87.23
2023-03-08T18:03:38.072Z,85.38
2023-03-08T18:07:41.834Z,84.09
2023-03-08T18:11:43.789Z,85.79
2023-03-08T18:15:45.298Z,84.29
2023-03-08T18:19:47.375Z,86.32
2023-03-08T18:23:48.835Z,81.01
2023-03-08T18:27:50.349Z,77.53
2023-03-08T18:31:52.885Z,78.66
2023-03-08T18:35:57.818Z,78.32
2023-03-08T18:39:59.571Z,79.12
2023-03-08T18:44:01.158Z,80.22
2023-03-08T18:48:02.759Z,80.94
2023-03-08T18:52:05.111Z,79.63
2023-03-08T18:56:06.934Z,78.70
2023-03-08T19:00:10.679Z,79.73
2023-03-08T19:04:12.239Z,79.27
2023-03-08T19:08:13.834Z,82.28
2023-03-08T19:12:15.769Z,91.20
2023-03-08T19:16:36.122Z,88.28
2023-03-08T19:20:40.061Z,83.93
2023-03-08T19:24:41.492Z,81.76
2023-03-08T19:28:42.981Z,80.42
2023-03-08T19:32:44.486Z,85.06
2023-03-08T19:36:47.699Z,90.52
2023-03-08T19:40:49.207Z,91.37
2023-03-08T19:44:52.591Z,95.84
2023-03-08T19:48:54.699Z,98.40
2023-03-08T19:52:56.119Z,100.00
2023-03-08T19:56:58.444Z,100.00
2023-03-08T20:01:05.350Z,100.00
2023-03-08T20:05:07.037Z,99.79
2023-03-08T20:09:18.104Z,97.46
2023-03-08T20:13:19.740Z,97.06
2023-03-08T20:17:23.287Z,96.81
2023-03-08T20:21:28.457Z,95.74
2023-03-08T20:25:29.883Z,94.49
2023-03-08T20:29:31.415Z,98.39
2023-03-08T20:33:32.819Z,100.00
2023-03-08T20:37:34.474Z,99.21
2023-03-08T20:41:35.943Z,99.18
2023-03-08T20:45:39.298Z,99.33
2023-03-08T20:49:40.946Z,98.60
2023-03-08T20:53:42.445Z,96.32
2023-03-08T20:57:47.587Z,97.58
2023-03-08T21:01:49.794Z,100.00
2023-03-08T21:05:51.344Z,100.00
2023-03-08T21:09:53.036Z,100.00
2023-03-08T21:13:55.517Z,98.57
2023-03-08T21:17:56.936Z,94.65
2023-03-08T21:21:58.468Z,100.00
2023-03-08T21:26:00.942Z,100.00
2023-03-08T21:30:03.666Z,99.83
2023-03-08T21:34:06.484Z,96.37
2023-03-08T21:38:08.780Z,95.00
2023-03-08T21:42:10.195Z,94.25
2023-03-08T21:46:11.781Z,93.45
2023-03-08T21:50:13.248Z,92.22
2023-03-08T21:54:15.474Z,92.33
2023-03-08T21:58:18.913Z,92.20
2023-03-08T22:02:20.506Z,93.92
2023-03-08T22:06:23.420Z,95.29
2023-03-08T22:10:24.930Z,94.25
2023-03-08T22:14:27.074Z,93.14
2023-03-08T22:18:28.593Z,93.97
2023-03-08T22:22:30.042Z,92.51
2023-03-08T22:26:32.417Z,92.56
2023-03-08T22:30:33.882Z,92.27
2023-03-08T22:34:35.586Z,92.33
2023-03-08T22:38:38.175Z,98.29
2023-03-08T22:42:40.107Z,94.16
2023-03-08T22:46:42.053Z,91.61
2023-03-08T22:50:43.629Z,90.59
2023-03-08T22:54:45.263Z,91.87
2023-03-08T22:59:06.633Z,92.04
2023-03-08T23:03:08.360Z,93.10
2023-03-08T23:07:09.951Z,93.53
2023-03-08T23:11:12.236Z,95.96
2023-03-08T23:15:13.707Z,95.86
2023-03-08T23:19:19.490Z,97.06
2023-03-08T23:23:24.905Z,98.84
2023-03-08T23:27:26.471Z,98.52
2023-03-08T23:31:30.345Z,96.50
2023-03-08T23:35:31.868Z,95.86
2023-03-08T23:39:33.990Z,98.35
2023-03-08T23:43:36.614Z,97.04
2023-03-08T23:47:38.042Z,95.30
2023-03-08T23:51:39.515Z,94.27
2023-03-08T23:55:41.367Z,99.67
2023-03-08T23:59:43.216Z,96.44
